Time;durP1;ratioP1;P1;durP2;ratioP2;P2;SDS_P1;SDS_P2;PMS_P1;PMS_P2;Temp;Humidity;BMP_temperature;BMP_pressure;BME280_temperature;BME280_humidity;BME280_pressure;Samples;Min_cycle;Max_cycle;Signal;HPM_P1;HPM_P2
2022/09/04 00:01:38;;;;;;;4.10;3.10;;;;;;;15.54;93.98;101932.13;5053749;28;20485;-41
2022/09/04 00:04:24;;;;;;;4.80;3.20;;;;;;;15.55;94.26;101943.72;5054300;28;20427;-39
2022/09/04 00:07:02;;;;;;;3.10;3.00;;;;;;;15.53;94.32;101941.22;5054317;28;20936;-40
2022/09/04 00:09:41;;;;;;;2.97;2.87;;;;;;;15.54;94.87;101932.13;5053628;28;20431;-41
2022/09/04 00:12:09;;;;;;;3.30;3.10;;;;;;;15.53;94.97;101930.47;5053678;28;20474;-41
2022/09/04 00:14:43;;;;;;;4.00;3.70;;;;;;;15.56;95.06;101927.38;5054114;28;20435;-40
2022/09/04 00:17:19;;;;;;;3.77;3.43;;;;;;;15.57;94.77;101929.06;5054106;28;20428;-42
2022/09/04 00:19:52;;;;;;;4.30;3.00;;;;;;;15.60;95.30;101934.03;5053616;28;20458;-40
2022/09/04 00:22:29;;;;;;;3.43;3.17;;;;;;;15.64;95.05;101934.47;5053746;28;20549;-41
2022/09/04 00:25:11;;;;;;;2.90;2.80;;;;;;;15.66;95.01;101929.69;5054030;28;20435;-40
2022/09/04 00:27:44;;;;;;;3.40;3.20;;;;;;;15.67;94.49;101932.22;5054129;28;20431;-41
2022/09/04 00:30:16;;;;;;;3.43;3.00;;;;;;;15.69;94.22;101929.31;5053120;28;20467;-42
2022/09/04 00:32:48;;;;;;;6.40;3.30;;;;;;;15.72;94.95;101923.53;5053233;28;20557;-42
2022/09/04 00:35:20;;;;;;;2.80;2.70;;;;;;;15.74;94.81;101930.34;5053969;28;20435;-41
2022/09/04 00:37:55;;;;;;;4.53;3.50;;;;;;;15.76;94.60;101932.84;5053682;28;20445;-40
2022/09/04 00:40:29;;;;;;;4.27;3.13;;;;;;;15.77;94.78;101927.25;5053049;28;20995;-40
2022/09/04 00:43:31;;;;;;;3.17;2.97;;;;;;;15.80;94.62;101923.38;5053189;28;20446;-40
2022/09/04 00:46:11;;;;;;;3.77;3.40;;;;;;;15.83;94.22;101928.34;5053479;28;20442;-40
2022/09/04 00:49:00;;;;;;;2.97;2.73;;;;;;;15.82;93.59;101919.44;5053527;28;20426;-40
2022/09/04 00:51:35;;;;;;;5.73;3.30;;;;;;;15.82;94.56;101919.44;5049518;28;20486;-42
2022/09/04 00:54:18;;;;;;;5.67;2.83;;;;;;;15.85;94.14;101918.19;5041645;28;20435;-40
2022/09/04 00:57:25;;;;;;;3.70;3.30;;;;;;;15.85;94.00;101920.88;5013652;28;20436;-40
2022/09/04 01:00:15;;;;;;;3.30;3.00;;;;;;;15.85;94.03;101919.03;5013185;28;20461;-41
2022/09/04 01:03:22;;;;;;;4.80;4.30;;;;;;;15.85;93.79;101924.41;5013098;28;20470;-39
2022/09/04 01:06:12;;;;;;;3.67;3.00;;;;;;;15.85;93.81;101923.56;5002690;28;20437;-40
2022/09/04 01:08:55;;;;;;;3.67;3.37;;;;;;;15.86;93.88;101922.56;5013522;28;20457;-39
2022/09/04 01:11:37;;;;;;;3.40;3.10;;;;;;;15.86;93.66;101936.00;5012783;28;20476;-41
2022/09/04 01:14:12;;;;;;;3.00;2.80;;;;;;;15.89;93.84;101927.50;5012903;28;20915;-40
2022/09/04 01:16:47;;;;;;;3.33;3.17;;;;;;;15.90;93.36;101930.00;5013172;28;20531;-40
2022/09/04 01:19:30;;;;;;;3.73;3.37;;;;;;;15.92;93.43;101927.94;5013169;28;20432;-40
2022/09/04 01:22:12;;;;;;;6.13;3.30;;;;;;;15.93;92.97;101924.22;5012820;28;20866;-41
2022/09/04 01:25:04;;;;;;;3.27;3.07;;;;;;;15.95;92.71;101929.38;5013001;28;20439;-40
2022/09/04 01:27:42;;;;;;;4.50;3.10;;;;;;;16.01;92.59;101924.03;5012984;28;20472;-39
2022/09/04 01:30:12;;;;;;;3.20;3.00;;;;;;;16.04;92.30;101930.84;5011887;28;20468;-40
2022/09/04 01:32:53;;;;;;;3.43;3.10;;;;;;;16.05;92.21;101930.66;5014698;28;20483;-41
2022/09/04 01:35:32;;;;;;;5.67;3.23;;;;;;;16.08;91.70;101931.28;5013710;28;20939;-40
2022/09/04 01:38:09;;;;;;;3.30;3.10;;;;;;;16.07;91.75;101929.66;5012954;28;20428;-40
2022/09/04 01:40:44;;;;;;;3.43;3.23;;;;;;;16.07;91.57;101933.13;5010920;28;20452;-40
2022/09/04 01:43:16;;;;;;;3.10;2.90;;;;;;;16.03;91.88;101930.06;5012551;28;20426;-40
2022/09/04 01:46:05;;;;;;;5.33;3.00;;;;;;;16.03;91.68;101929.22;5012833;28;20428;-40
2022/09/04 01:48:42;;;;;;;3.40;3.00;;;;;;;16.01;91.73;101928.56;5012667;28;20464;-40
2022/09/04 01:51:18;;;;;;;3.40;3.10;;;;;;;15.98;91.62;101937.03;5011421;28;20473;-40
2022/09/04 01:53:54;;;;;;;4.90;3.10;;;;;;;15.95;91.36;101932.06;5033358;28;20833;-40
2022/09/04 01:56:31;;;;;;;3.27;3.07;;;;;;;15.92;92.00;101940.53;5050669;28;20454;-39
2022/09/04 01:59:11;;;;;;;3.40;3.00;;;;;;;15.89;91.97;101939.09;5052262;28;20427;-40
2022/09/04 02:01:47;;;;;;;4.13;3.13;;;;;;;15.87;92.10;101943.84;5050684;28;20471;-40
2022/09/04 02:04:23;;;;;;;2.90;2.77;;;;;;;15.82;92.52;101943.66;5051690;28;20469;-44
2022/09/04 02:06:59;;;;;;;3.30;3.10;;;;;;;15.80;93.19;101942.19;5051897;28;20474;-41
2022/09/04 02:09:36;;;;;;;3.30;2.80;;;;;;;15.75;93.40;101948.16;5050709;28;20438;-40
2022/09/04 02:12:16;;;;;;;3.93;3.40;;;;;;;15.72;93.57;101948.56;5051765;28;20478;-40
2022/09/04 02:14:57;;;;;;;4.00;3.20;;;;;;;15.68;93.68;101959.94;5051699;28;20962;-40
2022/09/04 02:17:38;;;;;;;3.13;2.93;;;;;;;15.64;93.81;101954.13;5051973;28;20423;-40
2022/09/04 02:20:17;;;;;;;3.40;3.20;;;;;;;15.59;93.86;101953.88;5050459;28;20461;-41
2022/09/04 02:22:58;;;;;;;3.27;3.07;;;;;;;15.56;93.50;101951.56;5051544;28;20757;-39
2022/09/04 02:25:30;;;;;;;3.67;3.37;;;;;;;15.52;94.12;101953.03;5051820;28;20430;-40
2022/09/04 02:28:08;;;;;;;3.00;2.70;;;;;;;15.49;94.18;101948.06;5051628;28;20431;-40
2022/09/04 02:30:44;;;;;;;5.43;3.20;;;;;;;15.47;94.43;101952.81;5050301;28;20462;-39
2022/09/04 02:33:18;;;;;;;5.30;3.30;;;;;;;15.44;94.02;101962.03;5051341;28;20561;-39
2022/09/04 02:35:52;;;;;;;3.10;3.00;;;;;;;15.41;94.76;101957.06;5051796;28;20427;-40
2022/09/04 02:38:27;;;;;;;3.17;2.97;;;;;;;15.38;94.78;101962.03;5051693;28;20431;-42
2022/09/04 02:41:01;;;;;;;3.83;3.40;;;;;;;15.35;94.78;101957.84;5051069;28;20473;-41
2022/09/04 02:43:44;;;;;;;4.00;3.27;;;;;;;15.31;95.02;101953.94;5051313;28;20426;-40
2022/09/04 02:46:18;;;;;;;3.40;3.10;;;;;;;15.30;94.91;101962.16;5051767;28;20427;-40
2022/09/04 02:49:01;;;;;;;3.67;3.33;;;;;;;15.27;95.55;101963.41;5051590;28;20431;-42
2022/09/04 02:51:46;;;;;;;3.13;2.70;;;;;;;15.26;95.74;101959.03;5049197;28;20459;-40
2022/09/04 02:54:25;;;;;;;3.30;3.07;;;;;;;15.26;95.74;101966.31;5043210;28;20472;-41
2022/09/04 02:57:08;;;;;;;3.37;3.07;;;;;;;15.25;95.44;101961.94;5055668;28;20435;-40
2022/09/04 02:59:46;;;;;;;3.03;2.83;;;;;;;15.24;95.01;101961.09;5055063;28;20865;-41
2022/09/04 03:02:22;;;;;;;8.20;3.13;;;;;;;15.24;94.90;101961.09;5055082;28;20835;-41
2022/09/04 03:04:59;;;;;;;3.20;3.10;;;;;;;15.26;94.89;101966.31;5055548;28;20434;-41
2022/09/04 03:07:31;;;;;;;3.30;3.20;;;;;;;15.25;94.56;101968.16;5055485;28;20793;-40
2022/09/04 03:10:06;;;;;;;3.33;3.13;;;;;;;15.25;94.61;101978.06;5054950;28;20454;-39
2022/09/04 03:12:39;;;;;;;4.17;2.90;;;;;;;15.26;94.21;101975.16;5054730;28;20983;-40
2022/09/04 03:15:18;;;;;;;3.10;3.00;;;;;;;15.26;94.23;101975.16;5055047;28;20442;-39
2022/09/04 03:17:57;;;;;;;3.27;3.07;;;;;;;15.28;94.12;101980.34;5055195;28;20438;-40
2022/09/04 03:20:26;;;;;;;3.23;2.93;;;;;;;15.28;93.88;101983.03;5054672;28;20546;-40
2022/09/04 03:23:00;;;;;;;3.37;3.17;;;;;;;15.27;93.71;101974.16;5054879;28;20451;-41
2022/09/04 03:25:55;;;;;;;3.17;2.60;;;;;;;15.26;93.52;101977.84;5054767;28;20431;-41
2022/09/04 03:28:35;;;;;;;3.10;2.90;;;;;;;15.25;93.35;101976.22;5055236;28;20423;-41
2022/09/04 03:31:19;;;;;;;3.20;3.00;;;;;;;15.25;93.73;101975.38;5054387;28;20469;-41
2022/09/04 03:33:58;;;;;;;2.60;2.50;;;;;;;15.25;93.50;101983.44;5054417;28;20832;-40
2022/09/04 03:36:38;;;;;;;2.70;2.60;;;;;;;15.26;93.57;101982.41;5054988;28;20807;-40
2022/09/04 03:39:15;;;;;;;3.30;3.10;;;;;;;15.24;93.17;101987.97;5054789;28;20434;-40
2022/09/04 03:41:51;;;;;;;3.10;2.80;;;;;;;15.24;93.01;101987.16;5054128;28;20466;-40
2022/09/04 03:44:31;;;;;;;4.43;3.00;;;;;;;15.24;93.10;101990.66;5054309;28;20445;-40
2022/09/04 03:47:09;;;;;;;3.37;3.17;;;;;;;15.21;93.11;102001.81;5054515;28;20427;-40
2022/09/04 03:49:59;;;;;;;4.17;3.87;;;;;;;15.21;93.14;102009.88;5054072;28;20438;-41
2022/09/04 03:52:34;;;;;;;3.33;3.13;;;;;;;15.21;93.14;102009.03;5046382;28;20452;-41
2022/09/04 03:55:35;;;;;;;3.40;3.20;;;;;;;15.19;93.54;102003.88;5046291;28;20445;-40
2022/09/04 03:58:18;;;;;;;2.90;2.80;;;;;;;15.19;92.93;102005.72;5054449;28;20427;-39
2022/09/04 04:01:02;;;;;;;3.07;2.87;;;;;;;15.18;93.37;102004.06;5054137;28;20463;-41
2022/09/04 04:03:50;;;;;;;3.23;3.03;;;;;;;15.18;93.73;102007.56;5053584;28;20427;-40
2022/09/04 04:06:28;;;;;;;3.33;3.13;;;;;;;15.17;93.82;102005.09;5052820;28;20447;-40
2022/09/04 04:09:10;;;;;;;3.80;3.50;;;;;;;15.15;93.77;102007.13;5054299;28;20437;-40
2022/09/04 04:11:52;;;;;;;3.57;2.97;;;;;;;15.14;93.94;102005.50;5053789;28;20475;-41
2022/09/04 04:14:44;;;;;;;4.13;3.07;;;;;;;15.13;93.86;102009.19;5054136;28;20481;-40
2022/09/04 04:17:31;;;;;;;4.23;3.30;;;;;;;15.09;94.16;102003.38;5054107;28;20427;-40
2022/09/04 04:20:12;;;;;;;3.70;3.40;;;;;;;15.08;94.26;102008.97;5053733;28;20459;-41
2022/09/04 04:22:59;;;;;;;4.03;3.73;;;;;;;15.06;94.13;102011.00;5053806;28;20447;-40
2022/09/04 04:25:58;;;;;;;3.00;2.80;;;;;;;15.03;93.91;102016.75;5053912;28;20439;-40
2022/09/04 04:28:42;;;;;;;3.67;3.37;;;;;;;15.01;94.33;102014.28;5053991;28;20793;-40
2022/09/04 04:31:22;;;;;;;3.57;3.27;;;;;;;14.99;94.30;102019.03;5053330;28;20568;-40
2022/09/04 04:33:59;;;;;;;3.83;3.53;;;;;;;14.95;94.44;102010.50;5053518;28;20479;-40
2022/09/04 04:36:34;;;;;;;3.47;3.27;;;;;;;14.94;94.10;102014.22;5053568;28;20434;-40
2022/09/04 04:39:14;;;;;;;3.23;3.03;;;;;;;14.93;94.28;102017.91;5053809;28;20800;-41
2022/09/04 04:42:06;;;;;;;3.70;3.50;;;;;;;14.92;94.17;102015.44;5053115;28;20475;-40
2022/09/04 04:47:56;;;;;;;3.07;2.97;;;;;;;14.92;94.38;102018.97;5053646;28;20430;-39
2022/09/04 04:50:35;;;;;;;4.13;3.20;;;;;;;14.93;93.85;102028.66;5052943;28;20553;-39
2022/09/04 04:53:11;;;;;;;3.70;3.40;;;;;;;14.95;93.54;102032.00;5045409;28;20458;-41
2022/09/04 04:55:48;;;;;;;3.60;3.50;;;;;;;15.01;93.31;102034.94;5037807;28;20441;-40
2022/09/04 04:58:43;;;;;;;4.10;3.53;;;;;;;15.03;92.66;102028.34;5053233;28;20466;-40
2022/09/04 05:01:23;;;;;;;3.60;3.40;;;;;;;15.07;92.44;102034.16;5044888;28;21007;-40
2022/09/04 05:04:05;;;;;;;3.87;3.57;;;;;;;15.12;91.81;102029.84;5053259;28;20461;-40
2022/09/04 05:06:39;;;;;;;3.83;3.50;;;;;;;15.19;91.25;102038.81;5053163;28;20457;-40
2022/09/04 05:09:16;;;;;;;7.23;3.60;;;;;;;15.30;90.62;102040.09;5053035;28;20435;-39
2022/09/04 05:11:55;;;;;;;3.40;3.17;;;;;;;15.47;89.53;102045.00;5052210;28;20463;-40
2022/09/04 05:14:35;;;;;;;4.17;3.10;;;;;;;15.66;88.56;102051.53;5052788;28;20475;-41
2022/09/04 05:17:09;;;;;;;3.33;3.10;;;;;;;15.70;86.35;102052.81;5051448;28;20431;-40
2022/09/04 05:19:44;;;;;;;3.13;3.03;;;;;;;15.93;86.17;102057.91;5052253;28;20430;-40
2022/09/04 05:22:18;;;;;;;3.00;2.90;;;;;;;16.35;85.31;102057.66;5052828;28;20538;-39
2022/09/04 05:24:58;;;;;;;3.70;3.50;;;;;;;16.73;82.24;102059.81;5052826;28;20502;-40
2022/09/04 05:27:51;;;;;;;4.47;3.60;;;;;;;17.01;78.16;102071.28;5052754;28;20437;-41
2022/09/04 05:30:28;;;;;;;3.20;3.10;;;;;;;17.53;78.46;102065.03;5052254;28;20463;-40
2022/09/04 05:33:01;;;;;;;3.47;3.37;;;;;;;18.18;76.35;102059.44;5052020;28;20477;-40
2022/09/04 05:35:38;;;;;;;4.00;3.57;;;;;;;18.74;72.19;102072.25;5052609;28;20475;-40
2022/09/04 05:38:11;;;;;;;3.50;3.30;;;;;;;19.25;68.17;102064.78;5052641;28;20431;-40
2022/09/04 05:40:55;;;;;;;3.67;3.37;;;;;;;19.84;65.48;102058.78;5051892;28;20466;-41
2022/09/04 05:43:33;;;;;;;3.77;3.50;;;;;;;20.36;63.77;102061.94;5052402;28;20457;-40
2022/09/04 05:46:07;;;;;;;4.10;3.70;;;;;;;21.00;62.89;102071.19;5052163;28;20437;-41
2022/09/04 05:48:42;;;;;;;3.20;3.00;;;;;;;21.31;59.91;102073.59;5052332;28;20427;-40
2022/09/04 05:51:33;;;;;;;4.53;3.03;;;;;;;21.60;54.16;102063.69;5051684;28;20831;-40
2022/09/04 05:54:29;;;;;;;3.20;2.93;;;;;;;21.86;53.95;102076.78;5035996;28;20814;-43
2022/09/04 05:57:11;;;;;;;5.00;3.10;;;;;;;22.24;55.69;102079.78;5005866;28;20498;-40
2022/09/04 06:00:03;;;;;;;3.10;2.83;;;;;;;22.38;51.30;102077.56;5011832;28;20431;-40
2022/09/04 06:02:48;;;;;;;3.10;3.00;;;;;;;22.78;52.73;102083.81;5011673;28;20496;-40
2022/09/04 06:05:27;;;;;;;3.63;3.43;;;;;;;22.73;52.96;102077.47;5012327;28;20930;-41
2022/09/04 06:08:06;;;;;;;3.83;3.53;;;;;;;23.04;54.13;102082.34;5012289;28;21144;-40
2022/09/04 06:10:46;;;;;;;3.20;3.00;;;;;;;23.05;48.63;102095.72;5012104;28;20466;-41
2022/09/04 06:13:44;;;;;;;3.60;3.30;;;;;;;23.57;48.89;102077.22;5012117;28;20433;-42
2022/09/04 06:16:32;;;;;;;4.33;3.40;;;;;;;23.72;51.16;102086.66;5011758;28;20810;-40
2022/09/04 06:19:18;;;;;;;3.73;3.53;;;;;;;24.27;49.41;102081.97;5012331;28;20793;-40
2022/09/04 06:22:08;;;;;;;3.60;3.10;;;;;;;24.15;45.14;102086.75;5011763;28;20475;-42
2022/09/04 06:24:51;;;;;;;3.30;3.20;;;;;;;24.26;44.36;102090.41;5012168;28;20447;-41
2022/09/04 06:27:33;;;;;;;3.40;3.30;;;;;;;24.70;45.15;102092.78;5011996;28;20439;-42
2022/09/04 06:30:07;;;;;;;3.60;3.40;;;;;;;24.68;44.70;102094.97;5011260;28;20476;-41
2022/09/04 06:33:07;;;;;;;3.40;3.20;;;;;;;25.06;42.91;102096.69;5011256;28;20986;-43
2022/09/04 06:36:02;;;;;;;3.63;3.30;;;;;;;24.92;42.85;102100.13;5032706;28;20474;-40
2022/09/04 06:38:42;;;;;;;3.30;3.10;;;;;;;24.86;46.59;102102.00;5049611;28;20569;-41
2022/09/04 06:41:32;;;;;;;4.40;3.10;;;;;;;24.74;42.30;102099.41;5011113;28;20814;-41
2022/09/04 06:44:12;;;;;;;4.60;3.57;;;;;;;24.46;44.65;102107.81;5011738;28;20470;-43
2022/09/04 06:46:44;;;;;;;3.20;3.00;;;;;;;24.24;43.76;102115.19;5011986;28;20439;-41
2022/09/04 06:49:22;;;;;;;2.87;2.77;;;;;;;24.15;43.79;102114.00;5011337;28;20857;-43
2022/09/04 06:52:08;;;;;;;3.37;3.13;;;;;;;24.22;43.47;102115.44;5015517;28;20436;-41
2022/09/04 06:54:49;;;;;;;3.20;3.00;;;;;;;24.38;46.40;102121.91;5031094;28;21007;-41
2022/09/04 06:57:46;;;;;;;3.43;3.17;;;;;;;24.86;44.02;102128.44;5031176;28;20422;-41
2022/09/04 07:00:15;;;;;;;5.43;3.57;;;;;;;24.72;45.53;102122.56;5031214;28;20471;-43
2022/09/04 07:03:02;;;;;;;3.30;3.00;;;;;;;24.85;42.70;102122.16;5031279;28;20463;-40
2022/09/04 07:05:39;;;;;;;3.27;3.17;;;;;;;24.77;42.94;102128.88;5031565;28;20438;-41
2022/09/04 07:08:19;;;;;;;3.17;2.97;;;;;;;24.82;43.25;102125.41;5031364;28;20427;-40
2022/09/04 07:10:58;;;;;;;2.80;2.70;;;;;;;24.75;45.12;102133.78;5030931;28;20459;-41
2022/09/04 07:13:50;;;;;;;3.73;3.43;;;;;;;24.86;42.42;102128.44;5031295;28;20798;-41
2022/09/04 07:16:29;;;;;;;3.37;3.10;;;;;;;24.87;41.19;102141.84;5031190;28;20481;-41
2022/09/04 07:19:15;;;;;;;3.33;3.23;;;;;;;24.43;42.60;102143.78;5031198;28;20452;-41
2022/09/04 07:21:51;;;;;;;5.03;2.80;;;;;;;24.25;43.23;102146.84;5030997;28;20474;-41
2022/09/04 07:24:46;;;;;;;3.00;2.90;;;;;;;24.07;42.96;102147.91;5031262;28;20428;-40
2022/09/04 07:27:20;;;;;;;4.07;3.67;;;;;;;23.98;44.36;102151.34;5030982;28;20428;-40
2022/09/04 07:29:53;;;;;;;3.37;3.17;;;;;;;24.07;44.87;102153.38;5030455;28;20459;-41
2022/09/04 07:32:27;;;;;;;3.40;3.30;;;;;;;23.85;43.50;102159.88;5031166;28;20451;-40
2022/09/04 07:35:00;;;;;;;3.50;3.30;;;;;;;23.50;44.21;102160.16;5031116;28;20482;-42
2022/09/04 07:37:38;;;;;;;3.50;3.20;;;;;;;23.07;44.93;102164.31;5031056;28;20438;-41
2022/09/04 07:40:11;;;;;;;4.70;3.20;;;;;;;22.88;45.25;102162.84;5033440;28;20467;-42
2022/09/04 07:42:47;;;;;;;6.37;3.70;;;;;;;22.39;46.51;102163.50;5034541;28;20451;-40
2022/09/04 07:45:28;;;;;;;3.90;3.60;;;;;;;22.22;46.88;102162.59;5034791;28;20435;-44
2022/09/04 07:48:06;;;;;;;3.80;3.60;;;;;;;22.34;47.82;102172.34;5034465;28;20518;-41
2022/09/04 07:50:39;;;;;;;3.60;3.30;;;;;;;22.23;47.36;102175.09;5034499;28;20447;-44
2022/09/04 07:53:21;;;;;;;4.00;3.60;;;;;;;22.49;47.87;102172.66;5041936;28;20453;-41
2022/09/04 07:55:52;;;;;;;3.70;3.53;;;;;;;22.41;47.08;102178.50;5041906;28;20471;-43
2022/09/04 07:58:39;;;;;;;4.10;3.70;;;;;;;22.47;46.61;102179.41;5054376;28;20423;-41
2022/09/04 08:01:23;;;;;;;3.60;3.40;;;;;;;22.53;46.25;102192.06;5053873;28;20467;-40
2022/09/04 08:04:09;;;;;;;3.03;2.93;;;;;;;22.34;46.78;102185.16;5054367;28;20422;-41
2022/09/04 08:06:44;;;;;;;3.90;3.70;;;;;;;22.39;47.36;102187.97;5054362;28;20430;-42
2022/09/04 08:09:46;;;;;;;5.70;3.43;;;;;;;22.07;47.23;102182.13;5054773;28;20428;-40
2022/09/04 08:12:47;;;;;;;4.13;3.60;;;;;;;22.08;47.58;102186.47;5048341;28;20955;-44
2022/09/04 08:15:20;;;;;;;3.70;3.50;;;;;;;21.74;48.37;102190.00;5053783;28;20478;-40
2022/09/04 08:18:05;;;;;;;4.43;4.13;;;;;;;21.94;48.01;102193.22;5054268;28;20484;-40
2022/09/04 08:20:41;;;;;;;4.13;3.83;;;;;;;22.06;47.90;102185.88;5053806;28;20466;-40
2022/09/04 08:23:52;;;;;;;3.80;3.60;;;;;;;21.97;48.51;102190.03;5054067;28;20414;-40
2022/09/04 08:26:34;;;;;;;4.07;3.50;;;;;;;21.83;48.69;102192.09;5053950;28;20433;-41
2022/09/04 08:29:18;;;;;;;4.60;4.20;;;;;;;21.85;48.39;102192.72;5053896;28;20434;-40
2022/09/04 08:31:54;;;;;;;3.87;3.30;;;;;;;22.10;48.61;102199.81;5053465;28;20985;-42
2022/09/04 08:34:51;;;;;;;6.40;3.17;;;;;;;22.33;48.38;102192.47;5053579;28;20427;-40
2022/09/04 08:37:25;;;;;;;4.00;3.70;;;;;;;21.96;48.13;102202.78;5052485;28;21009;-43
2022/09/04 08:40:12;;;;;;;4.60;3.80;;;;;;;21.64;48.82;102196.00;5053224;28;20979;-42
2022/09/04 08:43:09;;;;;;;4.30;3.93;;;;;;;21.90;48.77;102192.84;5053625;28;20789;-42
2022/09/04 08:46:12;;;;;;;4.43;4.13;;;;;;;22.09;48.47;102199.00;5053625;28;20819;-43
2022/09/04 08:49:37;;;;;;;4.33;4.03;;;;;;;22.08;48.42;102196.50;5053657;28;20477;-41
2022/09/04 08:52:36;;;;;;;3.73;3.53;;;;;;;22.13;48.63;102215.66;4984795;28;20454;-46
2022/09/04 08:55:21;;;;;;;4.07;3.80;;;;;;;22.42;48.23;102203.78;4976102;28;20450;-43
2022/09/04 08:58:25;;;;;;;4.30;4.00;;;;;;;22.43;47.51;102210.88;5005093;28;20437;-41
2022/09/04 09:01:17;;;;;;;4.37;3.77;;;;;;;22.37;47.05;102200.97;5012847;28;20468;-41
2022/09/04 09:04:07;;;;;;;5.00;4.60;;;;;;;22.63;47.27;102200.44;5013552;28;20431;-41
2022/09/04 09:07:12;;;;;;;4.40;4.00;;;;;;;22.66;48.82;102199.97;5013582;28;20443;-41
2022/09/04 09:10:13;;;;;;;3.90;3.70;;;;;;;22.24;49.49;102209.38;5013024;28;20798;-41
2022/09/04 09:13:20;;;;;;;3.80;3.70;;;;;;;22.10;50.50;102208.81;5012958;28;20452;-41
2022/09/04 09:16:24;;;;;;;4.23;4.03;;;;;;;22.52;48.76;102214.84;5013142;28;20502;-42
2022/09/04 09:19:21;;;;;;;4.50;4.20;;;;;;;22.91;48.29;102213.22;5003369;28;20968;-41
2022/09/04 09:22:09;;;;;;;4.40;4.10;;;;;;;22.83;48.14;102210.91;5011432;28;21021;-42
2022/09/04 09:24:59;;;;;;;4.67;4.37;;;;;;;22.89;47.17;102205.31;5013185;28;20447;-41
2022/09/04 09:28:08;;;;;;;3.87;3.73;;;;;;;22.63;48.26;102211.31;5013155;28;20429;-42
2022/09/04 09:30:59;;;;;;;4.43;4.10;;;;;;;22.77;49.93;102206.44;5012754;28;20838;-41
2022/09/04 09:33:53;;;;;;;5.60;4.60;;;;;;;22.73;50.26;102213.44;5012695;28;20439;-41
2022/09/04 09:36:43;;;;;;;4.03;3.83;;;;;;;22.48;50.54;102203.66;5012812;28;20483;-41
2022/09/04 09:39:44;;;;;;;4.63;4.37;;;;;;;22.69;51.06;102209.53;5012946;28;20527;-41
2022/09/04 09:42:42;;;;;;;4.73;4.50;;;;;;;23.03;48.57;102209.38;4977408;28;20510;-40
2022/09/04 09:45:59;;;;;;;4.67;4.37;;;;;;;22.82;48.43;102209.28;5013114;28;20448;-41
2022/09/04 09:48:51;;;;;;;4.90;4.57;;;;;;;22.77;48.50;102209.16;5012809;28;20440;-41
2022/09/04 09:51:56;;;;;;;4.73;4.43;;;;;;;22.54;50.22;102208.13;4980443;28;21005;-42
2022/09/04 09:55:01;;;;;;;4.23;3.80;;;;;;;22.53;51.67;102202.94;5042713;28;20427;-44
2022/09/04 09:58:04;;;;;;;4.13;3.63;;;;;;;22.51;51.94;102208.63;5048345;28;20840;-41
2022/09/04 10:00:45;;;;;;;3.77;3.57;;;;;;;22.59;51.08;102205.53;5073134;22;20470;-53
2022/09/04 10:03:48;;;;;;;4.30;3.50;;;;;;;22.37;52.90;102203.69;4984037;28;20905;-54
2022/09/04 10:06:58;;;;;;;4.60;4.40;;;;;;;22.52;52.50;102198.53;4990176;28;20800;-50
2022/09/04 10:10:05;;;;;;;4.60;4.40;;;;;;;22.80;51.38;102204.06;4992238;28;20440;-53
2022/09/04 10:12:59;;;;;;;4.30;4.07;;;;;;;22.79;49.19;102194.25;4895738;29;20454;-54
2022/09/04 10:15:53;;;;;;;4.57;4.37;;;;;;;22.73;50.16;102202.56;4969810;28;20477;-53
2022/09/04 10:18:59;;;;;;;4.50;4.27;;;;;;;22.42;52.23;102193.75;4968489;28;20434;-55
2022/09/04 10:22:00;;;;;;;4.87;4.47;;;;;;;22.71;51.32;102175.59;4972666;28;21015;-51
2022/09/04 10:24:46;;;;;;;4.33;4.10;;;;;;;22.68;50.97;102188.84;4973224;28;20422;-53
2022/09/04 10:27:48;;;;;;;5.23;4.67;;;;;;;22.76;50.69;102181.13;4973249;28;20426;-56
2022/09/04 10:30:18;;;;;;;4.10;3.80;;;;;;;22.71;51.50;102191.09;4972676;28;20839;-51
2022/09/04 10:33:19;;;;;;;4.57;4.37;;;;;;;22.84;51.86;102175.31;4972910;28;20438;-52
2022/09/04 10:36:05;;;;;;;4.70;4.40;;;;;;;22.89;52.85;102177.28;4973002;28;20445;-53
2022/09/04 10:40:34;;;;;;;4.53;4.20;;;;;;;23.08;51.48;102192.34;4972816;28;20437;-56
2022/09/04 10:41:40;;;;;;;5.20;4.40;;;;;;;23.17;50.06;102190.88;4972435;28;20466;-54
2022/09/04 10:44:40;;;;;;;4.37;4.13;;;;;;;23.04;50.75;102188.47;4972697;28;20434;-55
2022/09/04 10:47:23;;;;;;;4.87;4.30;;;;;;;23.25;51.61;102195.09;4972669;28;20453;-54
2022/09/04 10:50:16;;;;;;;5.53;4.10;;;;;;;23.02;52.18;102199.59;4972385;28;20462;-48
2022/09/04 10:53:05;;;;;;;3.93;3.73;;;;;;;23.24;52.37;102204.34;4976951;28;20453;-54
2022/09/04 10:55:53;;;;;;;4.90;4.60;;;;;;;23.12;49.57;102193.50;4983865;28;20441;-51
2022/09/04 10:58:29;;;;;;;4.43;4.03;;;;;;;23.29;49.93;102196.25;4991853;28;20477;-56
2022/09/04 11:01:26;;;;;;;4.60;4.40;;;;;;;23.40;48.68;102193.50;4991613;28;20472;-51
2022/09/04 11:04:17;;;;;;;5.73;3.90;;;;;;;23.32;49.35;102195.75;4991781;28;20462;-56
2022/09/04 11:07:09;;;;;;;4.80;4.17;;;;;;;23.36;49.98;102191.47;4992169;28;20442;-56
2022/09/04 11:10:04;;;;;;;4.77;4.47;;;;;;;23.02;51.34;102196.88;4991688;28;20426;-56
2022/09/04 11:12:49;;;;;;;4.40;4.20;;;;;;;23.24;50.75;102196.19;4991558;28;20461;-50
2022/09/04 11:15:52;;;;;;;5.30;4.30;;;;;;;23.57;50.09;102188.88;4995588;28;20464;-48
2022/09/04 11:18:59;;;;;;;4.47;4.10;;;;;;;23.49;49.12;102180.28;4995714;28;20483;-54
2022/09/04 11:22:00;;;;;;;4.23;3.97;;;;;;;23.57;49.96;102188.88;4995122;28;20986;-51
2022/09/04 11:25:00;;;;;;;5.27;4.77;;;;;;;23.44;50.65;102189.22;4995454;28;20437;-56
2022/09/04 11:28:06;;;;;;;4.57;4.20;;;;;;;23.27;49.75;102185.59;4995823;28;20426;-50
2022/09/04 11:30:55;;;;;;;7.83;4.77;;;;;;;23.68;49.53;102185.22;4995119;28;20500;-48
2022/09/04 11:34:06;;;;;;;4.90;4.50;;;;;;;23.49;50.28;102183.84;4995578;28;20435;-55
2022/09/04 11:37:14;;;;;;;4.77;4.37;;;;;;;23.42;50.93;102185.91;4995383;28;20448;-48
2022/09/04 11:40:05;;;;;;;5.13;4.87;;;;;;;23.71;49.46;102174.94;4995215;28;20429;-56
2022/09/04 11:42:45;;;;;;;5.10;4.70;;;;;;;23.61;49.24;102181.88;4995193;28;20489;-56
2022/09/04 11:45:42;;;;;;;5.23;4.73;;;;;;;23.37;50.58;102193.13;4995130;28;20825;-54
2022/09/04 11:48:41;;;;;;;7.03;4.40;;;;;;;23.38;51.51;102181.16;4995385;28;20425;-56
2022/09/04 11:51:39;;;;;;;5.00;4.63;;;;;;;23.13;50.40;102187.00;4994584;28;20476;-48
2022/09/04 11:54:29;;;;;;;4.77;4.47;;;;;;;23.43;50.60;102190.28;4979933;28;20435;-51
2022/09/04 11:57:07;;;;;;;6.60;5.20;;;;;;;23.38;49.14;102195.63;4956467;28;20974;-52
2022/09/04 11:59:58;;;;;;;5.43;5.03;;;;;;;23.55;48.90;102191.03;4955776;28;20435;-49
2022/09/04 12:02:55;;;;;;;6.63;4.43;;;;;;;23.79;48.54;102186.22;4955857;28;20470;-54
2022/09/04 12:05:39;;;;;;;4.70;4.40;;;;;;;23.91;48.80;102186.94;4956173;29;20451;-55
2022/09/04 12:08:26;;;;;;;4.40;4.10;;;;;;;23.78;48.48;102202.78;4956141;29;20459;-50
2022/09/04 12:11:08;;;;;;;5.60;4.60;;;;;;;23.60;50.09;102190.25;4955427;28;21003;-53
2022/09/04 12:13:56;;;;;;;5.27;4.97;;;;;;;23.25;49.27;102208.69;4956035;29;20435;-56
2022/09/04 12:17:14;;;;;;;5.43;5.03;;;;;;;23.44;49.23;102185.66;4956046;29;20445;-57
2022/09/04 12:20:09;;;;;;;5.13;4.83;;;;;;;23.48;50.56;102198.53;4955658;28;20435;-54
2022/09/04 12:23:08;;;;;;;9.00;4.33;;;;;;;23.35;49.90;102208.88;4955778;28;20451;-55
2022/09/04 12:26:00;;;;;;;4.67;4.27;;;;;;;23.27;48.53;102195.66;4955455;28;20439;-54
2022/09/04 12:29:02;;;;;;;5.40;4.93;;;;;;;23.47;48.52;102191.44;4955920;29;20459;-55
2022/09/04 12:32:10;;;;;;;4.87;4.60;;;;;;;23.44;48.11;102185.66;4952575;28;20459;-54
2022/09/04 12:35:17;;;;;;;5.50;4.67;;;;;;;23.45;47.85;102188.13;4955532;29;20955;-54
2022/09/04 12:38:06;;;;;;;4.93;4.63;;;;;;;23.36;47.43;102195.00;4921317;28;20482;-55
2022/09/04 12:40:44;;;;;;;5.40;4.87;;;;;;;23.26;48.06;102192.13;4955091;28;20466;-55
2022/09/04 12:43:27;;;;;;;5.30;4.97;;;;;;;23.35;47.44;102193.38;4955469;29;20441;-53
2022/09/04 12:46:09;;;;;;;5.50;4.90;;;;;;;23.69;46.65;102199.66;4955451;29;20941;-50
2022/09/04 12:48:46;;;;;;;4.80;4.50;;;;;;;23.67;46.75;102204.56;4955509;29;20526;-55
2022/09/04 12:51:23;;;;;;;4.83;4.53;;;;;;;23.50;46.81;102193.66;4954951;28;20493;-55